createdAt,value
2022-12-04T00:00:40.620Z,-0.52
2022-12-04T00:03:27.599Z,-0.51
2022-12-04T00:06:17.563Z,-0.56
2022-12-04T00:09:06.090Z,-0.51
2022-12-04T00:11:52.792Z,-0.44
2022-12-04T00:15:00.767Z,-0.37
2022-12-04T00:17:48.665Z,-0.36
2022-12-04T00:20:35.584Z,-0.43
2022-12-04T00:23:23.399Z,-0.45
2022-12-04T00:26:12.923Z,-0.75
2022-12-04T00:28:59.853Z,-0.49
2022-12-04T00:31:46.901Z,-0.50
2022-12-04T00:34:34.185Z,-0.48
2022-12-04T00:37:21.193Z,-0.60
2022-12-04T00:40:10.832Z,-0.61
2022-12-04T00:42:57.632Z,-0.43
2022-12-04T00:45:44.754Z,-0.49
2022-12-04T00:48:33.904Z,-0.45
2022-12-04T00:51:24.187Z,-0.42
2022-12-04T00:54:10.743Z,-0.43
2022-12-04T00:56:59.247Z,-0.60
2022-12-04T00:59:46.003Z,-0.56
2022-12-04T01:02:35.121Z,-0.46
2022-12-04T01:05:22.001Z,-0.39
2022-12-04T01:08:09.723Z,-0.48
2022-12-04T01:10:56.261Z,-0.50
2022-12-04T01:13:46.486Z,-0.45
2022-12-04T01:16:35.949Z,-0.53
2022-12-04T01:19:22.633Z,-0.47
2022-12-04T01:22:09.391Z,-0.39
2022-12-04T01:24:56.680Z,-0.42
2022-12-04T01:27:43.319Z,-0.36
2022-12-04T01:30:31.654Z,-0.39
2022-12-04T01:33:18.455Z,-0.29
2022-12-04T01:36:07.979Z,-0.38
2022-12-04T01:38:55.306Z,-0.41
2022-12-04T01:41:41.829Z,-0.26
2022-12-04T01:44:30.449Z,-0.34
2022-12-04T01:47:18.289Z,-0.34
2022-12-04T01:50:05.880Z,-0.40
2022-12-04T01:52:52.628Z,-0.38
2022-12-04T01:55:40.288Z,-0.34
2022-12-04T01:58:32.758Z,-0.41
2022-12-04T02:01:19.913Z,-0.22
2022-12-04T02:04:07.782Z,-0.24
2022-12-04T02:06:54.326Z,-0.35
2022-12-04T02:09:43.190Z,-0.41
2022-12-04T02:12:35.991Z,-0.29
2022-12-04T02:15:27.436Z,-0.42
2022-12-04T02:18:20.659Z,-0.29
2022-12-04T02:21:12.847Z,-0.36
2022-12-04T02:24:20.642Z,-0.40
2022-12-04T02:27:14.986Z,-0.32
2022-12-04T02:30:10.169Z,-0.53
2022-12-04T02:33:02.935Z,-0.27
2022-12-04T02:35:55.296Z,-0.30
2022-12-04T02:38:45.699Z,-0.46
2022-12-04T02:41:41.879Z,-0.39
2022-12-04T02:44:33.504Z,-0.38
2022-12-04T02:47:23.836Z,-0.40
2022-12-04T02:50:14.650Z,-0.36
2022-12-04T02:53:06.897Z,-0.19
2022-12-04T02:55:57.185Z,-0.26
2022-12-04T02:58:48.463Z,-0.23
2022-12-04T03:01:43.386Z,-0.25
2022-12-04T03:04:32.069Z,-0.54
2022-12-04T03:07:25.182Z,-0.24
2022-12-04T03:10:17.039Z,-0.22
2022-12-04T03:13:07.423Z,-0.25
2022-12-04T03:16:00.173Z,-0.27
2022-12-04T03:18:49.741Z,-0.81
2022-12-04T03:21:40.749Z,-0.41
2022-12-04T03:24:34.663Z,-0.36
2022-12-04T03:27:29.833Z,-0.35
2022-12-04T03:30:19.054Z,-0.16
2022-12-04T03:33:12.003Z,-0.32
2022-12-04T03:36:04.217Z,-0.20
2022-12-04T03:38:59.240Z,-0.22
2022-12-04T03:41:56.537Z,-0.29
2022-12-04T03:44:47.413Z,-0.22
2022-12-04T03:47:39.997Z,-0.29
2022-12-04T03:50:35.980Z,-0.39
2022-12-04T03:53:31.668Z,-0.31
2022-12-04T03:56:24.008Z,-0.26
2022-12-04T03:59:18.005Z,-0.17
2022-12-04T04:02:09.455Z,-0.21
2022-12-04T04:05:00.122Z,-0.22
2022-12-04T04:07:51.314Z,-0.15
2022-12-04T04:10:38.155Z,-0.21
2022-12-04T04:13:51.254Z,-0.23
2022-12-04T04:17:00.476Z,-0.16
2022-12-04T04:20:08.823Z,-0.24
2022-12-04T04:23:17.340Z,-0.22
2022-12-04T04:26:05.603Z,-0.15
2022-12-04T04:28:53.754Z,-0.13
2022-12-04T04:31:44.584Z,-0.23
2022-12-04T04:34:41.092Z,-0.36
2022-12-04T04:37:36.198Z,-0.26
2022-12-04T04:40:28.063Z,-0.14
2022-12-04T04:43:23.433Z,-0.15
2022-12-04T04:46:17.426Z,-0.05
2022-12-04T04:49:08.604Z,-0.10
2022-12-04T04:51:56.344Z,-0.11
2022-12-04T04:54:43.452Z,-0.19
2022-12-04T04:57:31.871Z,-0.24
2022-12-04T05:00:22.909Z,-0.30
2022-12-04T05:03:13.517Z,-0.93
2022-12-04T05:06:00.936Z,-0.67
2022-12-04T05:08:50.494Z,-0.21
2022-12-04T05:11:37.280Z,-0.14
2022-12-04T05:14:24.011Z,-0.24
2022-12-04T05:17:12.839Z,-0.20
2022-12-04T05:20:01.122Z,-0.14
2022-12-04T05:22:47.824Z,-0.03
2022-12-04T05:25:37.426Z,-0.03
2022-12-04T05:28:23.946Z,-0.08
2022-12-04T05:31:11.052Z,-0.02
2022-12-04T05:33:57.981Z,-0.04
2022-12-04T05:36:46.157Z,-0.03
2022-12-04T05:39:35.028Z,0.03
2022-12-04T05:42:22.114Z,0.02
2022-12-04T05:45:09.600Z,-0.14
2022-12-04T05:47:56.186Z,-0.03
2022-12-04T05:50:43.153Z,-0.11
2022-12-04T05:53:34.284Z,-0.10
2022-12-04T05:56:21.065Z,-0.03
2022-12-04T06:02:11.778Z,-0.06
2022-12-04T06:05:00.644Z,0.04
2022-12-04T06:07:49.584Z,-0.01
2022-12-04T06:10:37.803Z,-0.04
2022-12-04T06:13:24.403Z,-0.04
2022-12-04T06:16:18.414Z,-0.06
2022-12-04T06:19:12.166Z,0.02
2022-12-04T06:21:59.230Z,-0.07
2022-12-04T06:24:51.127Z,0.08
2022-12-04T06:27:41.175Z,0.04
2022-12-04T06:30:30.521Z,0.12
2022-12-04T06:33:19.485Z,0.12
2022-12-04T06:36:11.701Z,0.09
2022-12-04T06:38:59.570Z,0.06
2022-12-04T06:41:48.766Z,0.06
2022-12-04T06:44:36.872Z,0.05
2022-12-04T06:47:25.954Z,0.10
2022-12-04T06:50:15.254Z,0.15
2022-12-04T06:53:08.366Z,0.16
2022-12-04T06:55:56.934Z,0.19
2022-12-04T06:58:43.565Z,0.19
2022-12-04T07:01:33.549Z,-0.36
2022-12-04T07:04:23.420Z,0.02
2022-12-04T07:07:13.188Z,0.15
2022-12-04T07:09:59.755Z,0.05
2022-12-04T07:12:46.627Z,0.09
2022-12-04T07:15:44.344Z,0.09
2022-12-04T07:18:35.905Z,0.10
2022-12-04T07:21:28.381Z,0.15
2022-12-04T07:24:17.105Z,0.15
2022-12-04T07:27:05.770Z,0.26
2022-12-04T07:29:55.883Z,0.31
2022-12-04T07:32:45.255Z,0.27
2022-12-04T07:35:35.682Z,0.24
2022-12-04T07:38:22.358Z,0.22
2022-12-04T07:41:12.371Z,0.31
2022-12-04T07:43:59.246Z,0.36
2022-12-04T07:46:47.958Z,0.32
2022-12-04T07:49:34.662Z,-0.54
2022-12-04T07:52:26.023Z,0.36
2022-12-04T07:55:18.804Z,0.45
2022-12-04T07:58:13.348Z,0.37
2022-12-04T08:01:11.441Z,0.50
2022-12-04T08:04:07.109Z,0.41
2022-12-04T08:06:53.877Z,0.33
2022-12-04T08:09:44.871Z,0.35
2022-12-04T08:12:32.819Z,0.40
2022-12-04T08:15:23.999Z,0.35
2022-12-04T08:18:12.832Z,0.37
2022-12-04T08:21:08.497Z,0.40
2022-12-04T08:23:59.160Z,0.37
2022-12-04T08:26:54.316Z,0.48
2022-12-04T08:29:40.728Z,0.42
2022-12-04T08:32:29.701Z,0.41
2022-12-04T08:35:16.535Z,0.56
2022-12-04T08:38:03.519Z,0.72
2022-12-04T08:40:52.209Z,0.35
2022-12-04T08:43:41.760Z,0.73
2022-12-04T08:46:32.178Z,0.53
2022-12-04T08:49:20.234Z,0.41
2022-12-04T08:52:11.099Z,0.54
2022-12-04T08:54:57.526Z,0.60
2022-12-04T08:57:46.821Z,0.74
2022-12-04T09:00:37.691Z,0.57
2022-12-04T09:03:31.037Z,0.56
2022-12-04T09:06:19.898Z,0.62
2022-12-04T09:09:11.143Z,0.69
2022-12-04T09:11:58.257Z,0.56
2022-12-04T09:14:44.805Z,0.70
2022-12-04T09:17:42.484Z,0.65
2022-12-04T09:20:31.102Z,0.75
2022-12-04T09:23:18.401Z,0.50
2022-12-04T09:26:33.053Z,0.54
2022-12-04T09:29:21.699Z,0.59
2022-12-04T09:32:10.528Z,0.62
2022-12-04T09:34:59.607Z,0.73
2022-12-04T09:37:48.347Z,0.64
2022-12-04T09:40:42.784Z,0.78
2022-12-04T09:43:43.213Z,0.76
2022-12-04T09:46:37.443Z,0.68
2022-12-04T09:49:40.506Z,0.65
2022-12-04T09:52:47.553Z,0.79
2022-12-04T09:55:41.833Z,0.80
2022-12-04T09:58:36.667Z,0.79
2022-12-04T10:01:34.446Z,0.87
2022-12-04T10:04:23.801Z,0.92
2022-12-04T10:07:17.898Z,0.84
2022-12-04T10:10:20.625Z,0.80
2022-12-04T10:13:34.478Z,0.82
2022-12-04T10:16:30.361Z,0.80
2022-12-04T10:19:29.181Z,0.86
2022-12-04T10:23:18.457Z,0.84
2022-12-04T10:26:15.293Z,0.88
2022-12-04T10:29:09.106Z,0.89
2022-12-04T10:32:07.596Z,0.72
2022-12-04T10:35:26.025Z,0.83
2022-12-04T10:38:28.988Z,0.86
2022-12-04T10:41:50.719Z,0.87
2022-12-04T10:44:37.356Z,0.87
2022-12-04T10:47:25.554Z,0.81
2022-12-04T10:50:28.780Z,0.89
2022-12-04T10:53:23.769Z,0.93
2022-12-04T10:57:00.663Z,1.05
2022-12-04T11:03:32.839Z,0.93
2022-12-04T11:06:28.704Z,1.04
2022-12-04T11:09:30.929Z,0.86
2022-12-04T11:12:36.736Z,0.97
2022-12-04T11:15:30.225Z,0.98
2022-12-04T11:18:23.003Z,1.08
2022-12-04T11:21:25.124Z,1.11
2022-12-04T11:24:55.701Z,1.07
2022-12-04T11:27:42.231Z,1.08
2022-12-04T11:30:42.451Z,1.09
2022-12-04T11:33:56.003Z,1.28
2022-12-04T11:36:59.121Z,1.26
2022-12-04T11:40:05.029Z,1.12
2022-12-04T11:43:14.996Z,1.12
2022-12-04T11:46:10.714Z,1.21
2022-12-04T11:49:00.510Z,1.23
2022-12-04T11:52:04.956Z,1.26
2022-12-04T11:55:08.562Z,1.11
2022-12-04T11:58:12.119Z,1.22
2022-12-04T12:01:17.428Z,1.17
2022-12-04T12:04:33.930Z,0.90
2022-12-04T12:07:39.425Z,1.08
2022-12-04T12:10:41.575Z,1.07
2022-12-04T12:13:45.609Z,1.04
2022-12-04T12:17:00.756Z,1.07
2022-12-04T12:20:16.921Z,0.95
2022-12-04T12:23:40.967Z,1.13
2022-12-04T12:26:46.954Z,1.19
2022-12-04T12:29:54.879Z,1.13
2022-12-04T12:33:07.502Z,1.24
2022-12-04T12:36:08.203Z,1.27
2022-12-04T12:38:59.011Z,1.24
2022-12-04T12:42:02.282Z,1.23
2022-12-04T12:45:05.833Z,1.29
2022-12-04T12:48:01.039Z,1.35
2022-12-04T12:51:28.394Z,1.24
2022-12-04T12:54:40.898Z,1.21
2022-12-04T12:57:34.572Z,1.29
2022-12-04T13:00:22.981Z,1.16
2022-12-04T13:03:29.669Z,0.37
2022-12-04T13:06:21.966Z,1.02
2022-12-04T13:09:27.484Z,1.10
2022-12-04T13:12:25.222Z,1.05
2022-12-04T13:15:19.143Z,1.18
2022-12-04T13:18:15.010Z,1.27
2022-12-04T13:21:14.064Z,1.19
2022-12-04T13:24:37.307Z,1.27
2022-12-04T13:27:41.518Z,1.24
2022-12-04T13:30:37.037Z,1.20
2022-12-04T13:34:06.638Z,1.29
2022-12-04T13:37:22.130Z,1.34
2022-12-04T13:40:34.683Z,1.23
2022-12-04T13:43:48.319Z,1.28
2022-12-04T13:46:41.279Z,1.48
2022-12-04T13:49:44.177Z,1.55
2022-12-04T13:52:42.371Z,1.48
2022-12-04T13:55:45.330Z,1.29
2022-12-04T13:58:36.018Z,1.35
2022-12-04T14:01:45.192Z,1.22
2022-12-04T14:04:46.083Z,1.18
2022-12-04T14:07:38.441Z,1.16
2022-12-04T14:10:33.688Z,1.17
2022-12-04T14:13:34.448Z,1.21
2022-12-04T14:16:31.310Z,1.38
2022-12-04T14:19:40.370Z,1.30
2022-12-04T14:22:48.785Z,1.24
2022-12-04T14:26:13.014Z,1.23
2022-12-04T14:29:19.355Z,1.36
2022-12-04T14:32:18.680Z,1.14
2022-12-04T14:35:18.545Z,1.30
2022-12-04T14:38:10.860Z,1.35
2022-12-04T14:41:06.324Z,1.27
2022-12-04T14:43:53.182Z,1.20
2022-12-04T14:46:48.791Z,1.24
2022-12-04T14:49:51.439Z,1.25
2022-12-04T14:52:50.185Z,1.22
2022-12-04T14:55:44.894Z,1.31
2022-12-04T14:58:35.632Z,1.37
2022-12-04T15:01:31.133Z,1.39
2022-12-04T15:04:29.103Z,1.39
2022-12-04T15:07:25.220Z,1.26
2022-12-04T15:10:40.794Z,1.30
2022-12-04T15:13:31.806Z,1.29
2022-12-04T15:16:34.573Z,1.34
2022-12-04T15:19:25.739Z,1.38
2022-12-04T15:22:23.254Z,1.33
2022-12-04T15:25:32.227Z,1.40
2022-12-04T15:28:43.758Z,1.45
2022-12-04T15:31:48.240Z,1.34
2022-12-04T15:34:44.596Z,1.40
2022-12-04T15:37:37.953Z,1.24
2022-12-04T15:40:31.425Z,1.37
2022-12-04T15:43:35.528Z,1.33
2022-12-04T15:46:25.098Z,1.40
2022-12-04T15:49:26.433Z,1.42
2022-12-04T15:52:17.169Z,1.31
2022-12-04T15:55:09.887Z,1.23
2022-12-04T15:57:58.950Z,1.39
2022-12-04T16:00:48.085Z,1.35
2022-12-04T16:03:52.631Z,1.53
2022-12-04T16:06:58.648Z,1.40
2022-12-04T16:09:57.965Z,1.45
2022-12-04T16:12:55.524Z,1.48
2022-12-04T16:15:47.637Z,1.49
2022-12-04T16:18:34.498Z,1.46
2022-12-04T16:21:27.581Z,1.54
2022-12-04T16:24:18.103Z,1.50
2022-12-04T16:27:15.644Z,1.38
2022-12-04T16:30:02.135Z,1.57
2022-12-04T16:32:48.850Z,1.47
2022-12-04T16:35:39.863Z,1.54
2022-12-04T16:38:27.390Z,1.56
2022-12-04T16:41:17.020Z,1.56
2022-12-04T16:44:04.030Z,1.53
2022-12-04T16:46:53.075Z,1.59
2022-12-04T16:49:39.924Z,1.46
2022-12-04T16:52:28.859Z,1.59
2022-12-04T16:55:23.118Z,1.44
2022-12-04T16:58:16.224Z,1.24
2022-12-04T17:01:05.225Z,1.41
2022-12-04T17:03:55.489Z,1.55
2022-12-04T17:06:42.886Z,1.47
2022-12-04T17:09:36.649Z,1.42
2022-12-04T17:12:23.031Z,1.45
2022-12-04T17:15:13.090Z,1.54
2022-12-04T17:17:59.469Z,1.53
2022-12-04T17:20:48.667Z,1.53
2022-12-04T17:23:35.062Z,1.55
2022-12-04T17:26:22.208Z,1.50
2022-12-04T17:29:09.599Z,1.62
2022-12-04T17:32:15.147Z,1.50
2022-12-04T17:35:07.197Z,1.56
2022-12-04T17:37:59.423Z,1.62
2022-12-04T17:41:05.067Z,1.56
2022-12-04T17:43:55.688Z,1.49
2022-12-04T17:46:44.824Z,1.43
2022-12-04T17:49:34.631Z,1.53
2022-12-04T17:52:22.723Z,1.66
2022-12-04T17:55:10.053Z,1.69
2022-12-04T17:58:01.130Z,1.01
2022-12-04T18:00:47.650Z,1.70
2022-12-04T18:03:34.890Z,1.73
2022-12-04T18:06:27.722Z,1.63
2022-12-04T18:09:17.656Z,1.68
2022-12-04T18:12:04.922Z,1.63
2022-12-04T18:14:53.657Z,1.63
2022-12-04T18:17:40.048Z,1.63
2022-12-04T18:20:27.493Z,1.60
2022-12-04T18:23:18.143Z,0.89
2022-12-04T18:26:07.445Z,1.72
2022-12-04T18:28:55.564Z,1.60
2022-12-04T18:31:54.932Z,1.64
2022-12-04T18:34:44.036Z,1.68
2022-12-04T18:37:34.233Z,1.68
2022-12-04T18:40:23.029Z,1.68
2022-12-04T18:43:15.364Z,1.74
2022-12-04T18:46:08.056Z,1.66
2022-12-04T18:49:00.223Z,1.63
2022-12-04T18:51:56.831Z,1.75
2022-12-04T18:54:45.421Z,1.78
2022-12-04T18:57:36.365Z,1.83
2022-12-04T19:00:23.405Z,1.70
2022-12-04T19:03:12.600Z,1.64
2022-12-04T19:05:59.383Z,1.85
2022-12-04T19:08:46.468Z,1.80
2022-12-04T19:11:45.302Z,1.86
2022-12-04T19:14:38.717Z,1.78
2022-12-04T19:17:26.520Z,1.74
2022-12-04T19:20:16.059Z,1.84
2022-12-04T19:23:04.943Z,1.91
2022-12-04T19:25:58.694Z,1.88
2022-12-04T19:28:47.954Z,1.88
2022-12-04T19:31:41.045Z,1.91
2022-12-04T19:34:30.159Z,1.95
2022-12-04T19:37:17.123Z,1.83
2022-12-04T19:40:06.672Z,1.93
2022-12-04T19:43:01.135Z,2.06
2022-12-04T19:45:50.162Z,1.91
2022-12-04T19:48:39.712Z,2.06
2022-12-04T19:51:41.108Z,2.06
2022-12-04T19:54:32.608Z,2.08
2022-12-04T19:57:19.236Z,2.11
2022-12-04T20:00:09.338Z,1.81
2022-12-04T20:03:02.501Z,2.03
2022-12-04T20:06:02.296Z,2.03
2022-12-04T20:09:10.077Z,2.10
2022-12-04T20:12:04.582Z,2.11
2022-12-04T20:14:54.493Z,2.05
2022-12-04T20:17:46.116Z,2.01
2022-12-04T20:20:38.076Z,2.05
2022-12-04T20:23:37.437Z,2.13
2022-12-04T20:26:44.599Z,0.67
2022-12-04T20:30:25.472Z,2.04
2022-12-04T20:33:27.316Z,2.10
2022-12-04T20:36:26.570Z,2.21
2022-12-04T20:39:24.390Z,2.17
2022-12-04T20:42:13.723Z,2.03
2022-12-04T20:45:00.187Z,2.13
2022-12-04T20:47:51.419Z,2.03
2022-12-04T20:50:40.176Z,2.10
2022-12-04T20:53:29.499Z,2.00
2022-12-04T20:56:23.436Z,1.95
2022-12-04T20:59:22.670Z,2.08
2022-12-04T21:02:16.352Z,2.09
2022-12-04T21:05:05.127Z,2.19
2022-12-04T21:08:00.890Z,2.27
2022-12-04T21:10:47.607Z,2.15
2022-12-04T21:13:58.809Z,2.05
2022-12-04T21:16:52.088Z,2.06
2022-12-04T21:19:40.063Z,2.10
2022-12-04T21:22:29.000Z,2.10
2022-12-04T21:25:15.915Z,2.12
2022-12-04T21:28:03.575Z,2.16
2022-12-04T21:30:54.420Z,2.21
2022-12-04T21:33:44.958Z,2.23
2022-12-04T21:36:42.649Z,2.20
2022-12-04T21:39:39.860Z,2.24
2022-12-04T21:42:41.167Z,2.31
2022-12-04T21:45:30.079Z,2.12
2022-12-04T21:48:20.507Z,2.10
2022-12-04T21:51:32.705Z,2.13
2022-12-04T21:54:20.716Z,2.10
2022-12-04T21:57:17.107Z,2.23
2022-12-04T22:00:07.880Z,2.16
2022-12-04T22:03:05.114Z,2.21
2022-12-04T22:05:57.439Z,2.11
2022-12-04T22:08:50.442Z,2.18
2022-12-04T22:11:43.806Z,2.27
2022-12-04T22:14:34.750Z,2.14
2022-12-04T22:17:30.600Z,2.24
2022-12-04T22:20:21.914Z,2.18
2022-12-04T22:23:15.205Z,2.09
2022-12-04T22:26:16.924Z,2.19
2022-12-04T22:29:20.813Z,2.25
2022-12-04T22:32:11.658Z,2.25
2022-12-04T22:34:58.318Z,2.16
2022-12-04T22:37:45.493Z,1.89
2022-12-04T22:40:35.786Z,2.19
2022-12-04T22:43:24.496Z,2.12
2022-12-04T22:46:16.802Z,2.10
2022-12-04T22:49:06.425Z,2.09
2022-12-04T22:52:00.260Z,2.12
2022-12-04T22:54:46.820Z,2.24
2022-12-04T22:57:35.480Z,2.27
2022-12-04T23:00:26.853Z,2.22
2022-12-04T23:03:13.806Z,2.24
2022-12-04T23:06:01.783Z,2.20
2022-12-04T23:08:48.972Z,2.29
2022-12-04T23:11:39.378Z,2.24
2022-12-04T23:14:30.342Z,2.26
2022-12-04T23:17:19.688Z,2.16
2022-12-04T23:20:10.334Z,2.25
2022-12-04T23:22:59.090Z,2.24
2022-12-04T23:25:46.204Z,2.26
2022-12-04T23:28:33.003Z,2.24
2022-12-04T23:31:21.092Z,2.26
2022-12-04T23:34:08.130Z,2.24
2022-12-04T23:36:54.884Z,2.34
2022-12-04T23:39:42.014Z,2.19
2022-12-04T23:42:31.952Z,2.34
2022-12-04T23:45:18.428Z,2.28
2022-12-04T23:48:07.468Z,2.33
2022-12-04T23:50:55.085Z,2.27
2022-12-04T23:53:42.104Z,2.02
2022-12-04T23:56:29.437Z,2.29
2022-12-04T23:59:16.301Z,2.32
